createdAt,value
2018-07-11T00:02:54.773Z,6.43
2018-07-11T00:06:58.475Z,5.93
2018-07-11T00:11:02.177Z,6.20
2018-07-11T00:15:05.989Z,5.57
2018-07-11T00:19:09.625Z,5.73
2018-07-11T00:23:13.339Z,5.87
2018-07-11T00:27:17.111Z,6.00
2018-07-11T00:31:20.852Z,5.50
2018-07-11T00:35:24.546Z,5.70
2018-07-11T00:39:28.201Z,5.57
2018-07-11T00:43:33.808Z,6.23
2018-07-11T00:47:37.544Z,5.80
2018-07-11T00:51:41.276Z,5.47
2018-07-11T00:55:45.944Z,6.80
2018-07-11T00:59:49.684Z,6.27
2018-07-11T01:03:55.729Z,6.87
2018-07-11T01:07:59.468Z,6.57
2018-07-11T01:12:03.260Z,6.40
2018-07-11T01:16:07.165Z,5.60
2018-07-11T01:20:10.972Z,6.50
2018-07-11T01:24:14.717Z,6.60
2018-07-11T01:28:18.402Z,6.97
2018-07-11T01:32:22.104Z,6.97
2018-07-11T01:36:26.203Z,6.50
2018-07-11T01:40:31.437Z,6.23
2018-07-11T01:44:35.438Z,7.10
2018-07-11T01:48:39.211Z,7.33
2018-07-11T01:52:54.465Z,7.17
2018-07-11T01:56:58.400Z,6.70
2018-07-11T02:01:03.160Z,6.27
2018-07-11T02:05:06.979Z,7.47
2018-07-11T02:09:10.777Z,7.77
2018-07-11T02:13:14.610Z,7.20
2018-07-11T02:17:18.415Z,7.27
2018-07-11T02:21:24.282Z,6.87
2018-07-11T02:25:28.419Z,6.87
2018-07-11T02:29:32.186Z,7.50
2018-07-11T02:33:36.019Z,7.47
2018-07-11T02:37:39.973Z,7.13
2018-07-11T02:41:43.721Z,7.67
2018-07-11T02:45:47.483Z,8.30
2018-07-11T02:49:51.245Z,7.87
2018-07-11T02:53:55.060Z,7.97
2018-07-11T02:57:58.734Z,8.47
2018-07-11T03:02:02.469Z,7.67
2018-07-11T03:06:06.121Z,7.77
2018-07-11T03:10:09.825Z,7.90
2018-07-11T03:14:13.557Z,7.00
2018-07-11T03:18:17.345Z,7.73
2018-07-11T03:22:21.078Z,8.67
2018-07-11T03:26:24.787Z,7.77
2018-07-11T03:30:28.553Z,7.17
2018-07-11T03:34:32.252Z,7.37
2018-07-11T03:38:36.065Z,8.30
2018-07-11T03:42:39.774Z,7.87
2018-07-11T03:46:43.553Z,8.10
2018-07-11T03:50:47.256Z,7.83
2018-07-11T03:54:50.986Z,7.43
2018-07-11T03:58:55.101Z,8.10
2018-07-11T04:02:58.800Z,7.73
2018-07-11T04:07:02.096Z,7.20
2018-07-11T04:11:05.415Z,8.17
2018-07-11T04:15:09.077Z,7.97
2018-07-11T04:19:12.797Z,8.73
2018-07-11T04:23:16.547Z,8.27
2018-07-11T04:27:19.934Z,7.43
2018-07-11T04:31:23.659Z,8.10
2018-07-11T04:35:27.402Z,8.23
2018-07-11T04:39:31.120Z,8.53
2018-07-11T04:43:35.169Z,9.00
2018-07-11T04:47:38.976Z,8.63
2018-07-11T04:51:42.849Z,8.27
2018-07-11T04:55:46.660Z,8.63
2018-07-11T04:59:50.346Z,8.60
2018-07-11T05:03:54.102Z,8.57
2018-07-11T05:07:57.816Z,8.23
2018-07-11T05:12:01.505Z,8.63
2018-07-11T05:16:05.357Z,8.27
2018-07-11T05:20:09.084Z,7.13
2018-07-11T05:24:12.789Z,6.87
2018-07-11T05:28:16.464Z,7.10
2018-07-11T05:32:20.197Z,7.87
2018-07-11T05:36:23.935Z,7.90
2018-07-11T05:40:27.692Z,6.97
2018-07-11T05:44:31.378Z,7.20
2018-07-11T05:48:35.076Z,7.57
2018-07-11T05:52:38.737Z,6.87
2018-07-11T05:56:42.086Z,7.57
2018-07-11T06:00:45.769Z,7.97
2018-07-11T06:04:49.445Z,7.77
2018-07-11T06:08:53.119Z,8.07
2018-07-11T06:12:56.774Z,7.80
2018-07-11T06:17:01.130Z,7.77
2018-07-11T06:21:04.803Z,8.20
2018-07-11T06:25:08.528Z,8.17
2018-07-11T06:29:12.215Z,8.20
2018-07-11T06:33:15.861Z,7.67
2018-07-11T06:37:19.546Z,7.50
2018-07-11T06:41:23.214Z,8.43
2018-07-11T06:45:26.944Z,9.60
2018-07-11T06:49:30.622Z,8.53
2018-07-11T06:53:34.302Z,9.00
2018-07-11T06:57:38.115Z,9.30
2018-07-11T07:01:41.832Z,9.13
2018-07-11T07:05:45.552Z,9.97
2018-07-11T07:09:49.237Z,11.23
2018-07-11T07:13:53.111Z,11.30
2018-07-11T07:17:56.819Z,12.17
2018-07-11T07:22:00.512Z,11.03
2018-07-11T07:26:10.664Z,11.63
2018-07-11T07:30:14.351Z,12.40
2018-07-11T07:34:18.057Z,13.13
2018-07-11T07:38:21.867Z,14.53
2018-07-11T07:42:25.605Z,14.10
2018-07-11T07:46:29.472Z,14.17
2018-07-11T07:50:32.862Z,13.27
2018-07-11T07:54:36.620Z,13.77
2018-07-11T07:58:40.425Z,13.67
2018-07-11T08:02:44.144Z,13.60
2018-07-11T08:06:47.937Z,16.77
2018-07-11T08:10:51.659Z,14.80
2018-07-11T08:14:55.364Z,15.20
2018-07-11T08:18:59.044Z,14.57
2018-07-11T08:23:15.928Z,14.50
2018-07-11T08:27:30.715Z,13.63
2018-07-11T08:32:46.992Z,14.73
2018-07-11T08:37:03.387Z,14.50
2018-07-11T08:43:24.565Z,12.73
2018-07-11T08:47:38.704Z,14.00
2018-07-11T08:51:49.011Z,13.70
2018-07-11T08:56:03.873Z,14.93
2018-07-11T09:00:25.865Z,14.43
2018-07-11T09:05:45.214Z,14.23
2018-07-11T09:10:29.723Z,15.13
2018-07-11T09:16:49.016Z,15.57
2018-07-11T09:21:49.417Z,14.90
2018-07-11T09:25:53.185Z,15.00
2018-07-11T09:29:56.525Z,14.27
2018-07-11T09:34:00.222Z,13.27
2018-07-11T09:38:03.920Z,13.97
2018-07-11T09:42:07.662Z,14.40
2018-07-11T09:46:11.421Z,12.63
2018-07-11T09:50:15.168Z,12.83
2018-07-11T09:54:18.978Z,11.27
2018-07-11T09:58:22.708Z,10.73
2018-07-11T10:02:26.555Z,9.77
2018-07-11T10:06:30.307Z,9.70
2018-07-11T10:10:34.077Z,8.80
2018-07-11T10:14:37.727Z,8.80
2018-07-11T10:18:46.170Z,9.93
2018-07-11T10:22:49.955Z,9.83
2018-07-11T10:26:53.692Z,10.53
2018-07-11T10:30:57.408Z,45.00
2018-07-11T10:35:01.245Z,29.93
2018-07-11T10:39:05.721Z,11.40
2018-07-11T10:43:09.797Z,10.97
2018-07-11T10:47:13.831Z,10.70
2018-07-11T10:51:17.587Z,12.60
2018-07-11T10:55:21.356Z,12.13
2018-07-11T10:59:25.312Z,11.10
2018-07-11T11:03:31.064Z,11.77
2018-07-11T11:07:34.826Z,12.30
2018-07-11T11:11:38.521Z,12.47
2018-07-11T11:15:42.200Z,11.67
2018-07-11T11:19:45.908Z,10.93
2018-07-11T11:23:49.620Z,10.43
2018-07-11T11:27:53.358Z,9.53
2018-07-11T11:31:57.103Z,11.10
2018-07-11T11:36:00.789Z,11.23
2018-07-11T11:40:04.487Z,11.83
2018-07-11T11:44:08.163Z,11.73
2018-07-11T11:48:11.917Z,11.13
2018-07-11T11:52:15.620Z,12.37
2018-07-11T11:56:19.379Z,12.47
2018-07-11T12:00:23.121Z,12.17
2018-07-11T12:04:26.854Z,11.93
2018-07-11T12:08:30.538Z,12.67
2018-07-11T12:12:37.203Z,11.27
2018-07-11T12:16:41.157Z,10.70
2018-07-11T12:20:45.760Z,11.57
2018-07-11T12:24:50.189Z,9.37
2018-07-11T12:28:54.479Z,11.83
2018-07-11T12:32:58.228Z,10.23
2018-07-11T12:37:01.992Z,9.90
2018-07-11T12:41:05.623Z,9.73
2018-07-11T12:45:09.464Z,10.20
2018-07-11T12:49:13.217Z,9.90
2018-07-11T12:53:16.949Z,9.40
2018-07-11T12:57:20.795Z,10.27
2018-07-11T13:01:24.724Z,10.03
2018-07-11T13:05:28.482Z,8.87
2018-07-11T13:09:32.325Z,7.60
2018-07-11T13:13:36.098Z,6.53
2018-07-11T13:17:39.923Z,4.83
2018-07-11T13:21:43.691Z,4.83
2018-07-11T13:25:47.444Z,3.30
2018-07-11T13:29:51.140Z,3.50
2018-07-11T13:33:55.096Z,3.00
2018-07-11T13:37:58.774Z,2.90
2018-07-11T13:42:02.489Z,3.03
2018-07-11T13:46:06.191Z,3.47
2018-07-11T13:50:10.102Z,3.10
2018-07-11T13:54:13.954Z,3.67
2018-07-11T13:58:18.411Z,3.50
2018-07-11T14:02:22.201Z,3.50
2018-07-11T14:06:26.087Z,3.10
2018-07-11T14:10:29.908Z,3.27
2018-07-11T14:14:33.727Z,2.93
2018-07-11T14:18:37.064Z,4.17
2018-07-11T14:22:40.821Z,5.90
2018-07-11T14:26:45.039Z,5.00
2018-07-11T14:30:48.978Z,5.53
2018-07-11T14:34:52.703Z,6.30
2018-07-11T14:38:56.447Z,5.73
2018-07-11T14:43:02.841Z,5.60
2018-07-11T14:47:11.267Z,5.47
2018-07-11T14:51:16.513Z,4.80
2018-07-11T14:55:21.696Z,7.03
2018-07-11T14:59:25.752Z,6.70
2018-07-11T15:03:30.304Z,6.30
2018-07-11T15:07:34.615Z,7.10
2018-07-11T15:11:39.384Z,6.73
2018-07-11T15:15:43.569Z,6.60
2018-07-11T15:19:47.371Z,6.27
2018-07-11T15:23:51.146Z,6.43
2018-07-11T15:27:55.185Z,6.80
2018-07-11T15:31:59.019Z,7.17
2018-07-11T15:36:02.812Z,6.87
2018-07-11T15:40:06.985Z,6.73
2018-07-11T15:44:10.743Z,6.10
2018-07-11T15:48:14.563Z,6.33
2018-07-11T15:52:19.322Z,6.07
2018-07-11T15:56:23.211Z,6.77
2018-07-11T16:00:36.851Z,7.17
2018-07-11T16:04:40.900Z,6.60
2018-07-11T16:08:50.905Z,6.07
2018-07-11T16:12:54.724Z,6.20
2018-07-11T16:16:58.671Z,6.63
2018-07-11T16:21:02.459Z,6.47
2018-07-11T16:25:06.675Z,6.37
2018-07-11T16:29:10.427Z,6.20
2018-07-11T16:33:14.119Z,6.87
2018-07-11T16:37:17.859Z,7.17
2018-07-11T16:41:21.610Z,6.63
2018-07-11T16:45:25.600Z,6.30
2018-07-11T16:49:29.911Z,6.90
2018-07-11T16:53:33.830Z,6.37
2018-07-11T16:57:42.491Z,7.00
2018-07-11T17:01:59.509Z,5.83
2018-07-11T17:06:07.021Z,5.93
2018-07-11T17:10:10.795Z,8.77
2018-07-11T17:14:16.864Z,7.00
2018-07-11T17:19:00.324Z,7.23
2018-07-11T17:23:06.432Z,7.13
2018-07-11T17:27:10.217Z,8.83
2018-07-11T17:31:13.963Z,8.30
2018-07-11T17:35:17.691Z,8.13
2018-07-11T17:39:22.279Z,8.40
2018-07-11T17:43:33.141Z,9.27
2018-07-11T17:48:15.001Z,8.73
2018-07-11T17:52:18.766Z,10.13
2018-07-11T17:56:22.787Z,8.90
2018-07-11T18:00:53.288Z,9.33
2018-07-11T18:05:12.412Z,9.03
2018-07-11T18:09:16.652Z,9.53
2018-07-11T18:13:34.275Z,9.10
2018-07-11T18:17:56.169Z,8.83
2018-07-11T18:22:28.932Z,9.37
2018-07-11T18:26:57.938Z,9.97
2018-07-11T18:31:57.216Z,9.87
2018-07-11T18:36:30.629Z,10.50
2018-07-11T18:40:38.386Z,11.03
2018-07-11T18:46:58.215Z,10.40
2018-07-11T18:52:12.587Z,10.17
2018-07-11T18:56:35.926Z,9.90
2018-07-11T19:00:44.484Z,10.50
2018-07-11T19:06:56.930Z,10.33
2018-07-11T19:11:04.430Z,9.27
2018-07-11T19:15:11.788Z,11.20
2018-07-11T19:19:20.350Z,10.43
2018-07-11T19:23:31.303Z,9.50
2018-07-11T19:28:18.238Z,10.00
2018-07-11T19:32:31.635Z,9.73
2018-07-11T19:36:53.562Z,10.30
2018-07-11T19:41:15.941Z,9.93
2018-07-11T19:46:33.148Z,9.20
2018-07-11T19:50:51.630Z,9.00
2018-07-11T19:55:23.587Z,8.97
2018-07-11T19:59:27.431Z,8.13
2018-07-11T20:03:31.205Z,8.23
2018-07-11T20:07:34.964Z,7.70
2018-07-11T20:11:38.832Z,7.20
2018-07-11T20:15:42.484Z,6.80
2018-07-11T20:19:46.208Z,8.10
2018-07-11T20:23:49.557Z,7.37
2018-07-11T20:27:53.255Z,5.90
2018-07-11T20:31:57.096Z,5.53
2018-07-11T20:36:00.748Z,5.17
2018-07-11T20:40:04.485Z,4.40
2018-07-11T20:44:08.203Z,5.07
2018-07-11T20:48:11.992Z,4.87
2018-07-11T20:52:15.680Z,4.63
2018-07-11T20:56:19.437Z,4.80
2018-07-11T21:00:34.265Z,4.93
2018-07-11T21:05:22.129Z,5.20
2018-07-11T21:11:46.040Z,4.97
2018-07-11T21:16:00.339Z,5.87
2018-07-11T21:20:04.019Z,5.80
2018-07-11T21:24:08.784Z,7.33
2018-07-11T21:28:12.419Z,7.67
2018-07-11T21:32:16.141Z,8.97
2018-07-11T21:36:19.848Z,8.30
2018-07-11T21:40:23.579Z,8.70
2018-07-11T21:44:27.327Z,9.00
2018-07-11T21:48:30.966Z,11.20
2018-07-11T21:52:34.658Z,11.90
2018-07-11T21:56:38.455Z,11.77
2018-07-11T22:00:42.132Z,12.73
2018-07-11T22:04:45.849Z,11.03
2018-07-11T22:08:49.501Z,11.57
2018-07-11T22:12:53.199Z,11.80
2018-07-11T22:16:57.917Z,13.13
2018-07-11T22:21:01.181Z,10.87
2018-07-11T22:25:03.643Z,12.03
2018-07-11T22:29:06.130Z,12.73
2018-07-11T22:33:08.611Z,12.30
2018-07-11T22:37:11.093Z,12.80
2018-07-11T22:41:13.582Z,11.87
2018-07-11T22:45:16.049Z,12.63
2018-07-11T22:49:18.737Z,12.37
2018-07-11T22:53:21.222Z,12.60
2018-07-11T22:57:23.702Z,13.37
2018-07-11T23:01:26.196Z,13.20
2018-07-11T23:05:28.634Z,14.80
2018-07-11T23:09:31.105Z,14.87
2018-07-11T23:13:33.585Z,14.33
2018-07-11T23:17:36.064Z,15.47
2018-07-11T23:21:38.603Z,15.00
2018-07-11T23:25:41.079Z,15.83
2018-07-11T23:29:43.555Z,15.70
2018-07-11T23:33:46.039Z,17.00
2018-07-11T23:37:48.529Z,17.57
2018-07-11T23:41:50.974Z,18.43
2018-07-11T23:45:53.446Z,18.73
2018-07-11T23:49:55.919Z,20.63
2018-07-11T23:53:58.425Z,20.60
2018-07-11T23:58:00.900Z,18.80
